createdAt,value
2018-04-07T00:01:40.954Z,2.60
2018-04-07T00:04:10.234Z,2.90
2018-04-07T00:06:41.056Z,2.73
2018-04-07T00:09:10.510Z,3.17
2018-04-07T00:11:39.757Z,3.23
2018-04-07T00:14:09.011Z,3.43
2018-04-07T00:16:38.255Z,2.90
2018-04-07T00:19:07.494Z,2.63
2018-04-07T00:21:36.887Z,2.93
2018-04-07T00:24:06.154Z,2.60
2018-04-07T00:26:35.448Z,2.80
2018-04-07T00:29:04.696Z,3.10
2018-04-07T00:31:33.947Z,2.70
2018-04-07T00:34:03.192Z,2.53
2018-04-07T00:36:32.430Z,2.43
2018-04-07T00:39:01.670Z,3.40
2018-04-07T00:41:30.926Z,2.83
2018-04-07T00:44:00.184Z,2.43
2018-04-07T00:46:29.446Z,2.53
2018-04-07T00:48:59.474Z,3.47
2018-04-07T00:51:28.705Z,3.27
2018-04-07T00:53:57.961Z,2.50
2018-04-07T00:56:27.966Z,2.63
2018-04-07T00:58:57.393Z,2.77
2018-04-07T01:01:26.621Z,3.40
2018-04-07T01:03:55.883Z,2.57
2018-04-07T01:06:25.129Z,3.70
2018-04-07T01:08:54.374Z,3.23
2018-04-07T01:11:24.402Z,2.73
2018-04-07T01:13:53.636Z,2.67
2018-04-07T01:16:22.870Z,2.97
2018-04-07T01:18:52.111Z,3.57
2018-04-07T01:21:21.333Z,3.70
2018-04-07T01:23:50.623Z,3.03
2018-04-07T01:26:19.862Z,3.37
2018-04-07T01:28:49.108Z,3.27
2018-04-07T01:31:18.355Z,3.00
2018-04-07T01:33:47.617Z,2.90
2018-04-07T01:36:16.862Z,3.33
2018-04-07T01:38:46.818Z,3.43
2018-04-07T01:41:16.816Z,3.10
2018-04-07T01:43:47.047Z,3.00
2018-04-07T01:46:16.277Z,3.87
2018-04-07T01:48:45.533Z,3.50
2018-04-07T01:51:14.782Z,2.93
2018-04-07T01:53:44.047Z,3.80
2018-04-07T01:56:14.112Z,3.10
2018-04-07T01:58:43.345Z,3.33
2018-04-07T02:01:12.638Z,3.50
2018-04-07T02:03:42.071Z,3.60
2018-04-07T02:06:11.351Z,3.10
2018-04-07T02:08:40.607Z,4.07
2018-04-07T02:11:09.857Z,3.27
2018-04-07T02:13:39.114Z,3.23
2018-04-07T02:16:09.053Z,3.40
2018-04-07T02:18:38.375Z,3.03
2018-04-07T02:21:07.653Z,3.03
2018-04-07T02:23:36.926Z,3.40
2018-04-07T02:26:06.203Z,3.50
2018-04-07T02:28:36.228Z,3.73
2018-04-07T02:31:05.507Z,3.40
2018-04-07T02:33:34.794Z,3.47
2018-04-07T02:36:04.026Z,3.20
2018-04-07T02:38:34.059Z,3.93
2018-04-07T02:41:03.334Z,3.60
2018-04-07T02:43:32.588Z,3.47
2018-04-07T02:46:01.835Z,3.40
2018-04-07T02:48:31.100Z,3.47
2018-04-07T02:51:00.346Z,3.17
2018-04-07T02:53:29.577Z,3.30
2018-04-07T02:55:58.839Z,4.50
2018-04-07T02:58:28.870Z,3.10
2018-04-07T03:00:58.196Z,3.67
2018-04-07T03:03:27.479Z,3.97
2018-04-07T03:05:57.473Z,2.60
2018-04-07T03:08:26.729Z,3.20
2018-04-07T03:10:56.232Z,3.80
2018-04-07T03:13:25.609Z,3.80
2018-04-07T03:15:54.860Z,3.90
2018-04-07T03:18:24.098Z,4.00
2018-04-07T03:20:53.354Z,3.37
2018-04-07T03:23:22.614Z,3.37
2018-04-07T03:25:51.907Z,3.63
2018-04-07T03:28:21.921Z,3.70
2018-04-07T03:30:51.194Z,3.40
2018-04-07T03:33:20.601Z,3.90
2018-04-07T03:35:50.083Z,3.50
2018-04-07T03:38:19.326Z,3.80
2018-04-07T03:40:48.582Z,3.63
2018-04-07T03:43:17.949Z,3.70
2018-04-07T03:45:47.209Z,3.27
2018-04-07T03:48:17.221Z,2.90
2018-04-07T03:50:46.478Z,4.40
2018-04-07T03:53:15.746Z,3.50
2018-04-07T03:55:44.993Z,3.77
2018-04-07T03:58:14.245Z,4.30
2018-04-07T04:00:44.278Z,4.07
2018-04-07T04:03:13.497Z,3.90
2018-04-07T04:05:42.754Z,3.10
2018-04-07T04:08:12.026Z,4.47
2018-04-07T04:10:41.287Z,3.20
2018-04-07T04:13:10.535Z,3.73
2018-04-07T04:15:39.777Z,3.50
2018-04-07T04:18:09.771Z,4.73
2018-04-07T04:20:39.030Z,3.47
2018-04-07T04:23:08.270Z,3.50
2018-04-07T04:25:37.546Z,4.10
2018-04-07T04:28:06.801Z,3.80
2018-04-07T04:30:36.050Z,4.40
2018-04-07T04:33:05.352Z,3.70
2018-04-07T04:35:34.590Z,4.17
2018-04-07T04:38:04.613Z,3.77
2018-04-07T04:40:33.870Z,3.83
2018-04-07T04:43:03.102Z,3.63
2018-04-07T04:45:33.110Z,3.90
2018-04-07T04:48:02.358Z,3.37
2018-04-07T04:50:31.614Z,3.00
2018-04-07T04:53:00.864Z,4.20
2018-04-07T04:55:30.105Z,3.70
2018-04-07T04:57:59.363Z,4.30
2018-04-07T05:00:28.627Z,4.20
2018-04-07T05:02:58.626Z,3.83
2018-04-07T05:05:27.876Z,4.10
2018-04-07T05:07:57.114Z,4.17
2018-04-07T05:10:26.377Z,3.20
2018-04-07T05:12:55.648Z,3.17
2018-04-07T05:15:24.897Z,3.80
2018-04-07T05:17:54.149Z,3.53
2018-04-07T05:20:24.159Z,4.20
2018-04-07T05:22:53.452Z,3.87
2018-04-07T05:25:22.723Z,3.20
2018-04-07T05:27:51.975Z,3.80
2018-04-07T05:30:21.974Z,3.53
2018-04-07T05:32:51.241Z,2.87
2018-04-07T05:35:20.536Z,3.60
2018-04-07T05:37:49.800Z,4.00
2018-04-07T05:40:19.806Z,3.47
2018-04-07T05:42:49.067Z,4.53
2018-04-07T05:45:18.317Z,3.47
2018-04-07T05:47:48.497Z,3.13
2018-04-07T05:50:17.747Z,4.10
2018-04-07T05:52:47.092Z,4.07
2018-04-07T05:55:16.331Z,4.10
2018-04-07T05:57:46.357Z,4.30
2018-04-07T06:00:15.628Z,3.67
2018-04-07T06:02:44.840Z,3.37
2018-04-07T06:05:14.166Z,4.07
2018-04-07T06:07:44.190Z,4.30
2018-04-07T06:10:13.425Z,4.60
2018-04-07T06:12:42.667Z,4.53
2018-04-07T06:15:12.695Z,5.50
2018-04-07T06:17:41.939Z,4.73
2018-04-07T06:20:11.190Z,4.30
2018-04-07T06:22:41.200Z,4.70
2018-04-07T06:25:10.542Z,4.33
2018-04-07T06:27:39.826Z,5.30
2018-04-07T06:30:09.072Z,5.07
2018-04-07T06:32:38.347Z,4.17
2018-04-07T06:35:07.672Z,5.10
2018-04-07T06:37:36.937Z,5.13
2018-04-07T06:40:06.187Z,4.50
2018-04-07T06:42:36.254Z,5.23
2018-04-07T06:45:06.349Z,5.67
2018-04-07T06:47:35.606Z,5.33
2018-04-07T06:50:04.866Z,5.43
2018-04-07T06:52:34.333Z,6.30
2018-04-07T06:55:03.665Z,4.90
2018-04-07T06:57:32.865Z,5.23
2018-04-07T07:00:02.156Z,5.33
2018-04-07T07:02:31.422Z,5.80
2018-04-07T07:05:00.694Z,5.60
2018-04-07T07:07:29.989Z,5.67
2018-04-07T07:10:00.045Z,5.10
2018-04-07T07:12:29.344Z,5.00
2018-04-07T07:14:58.586Z,5.30
2018-04-07T07:17:27.865Z,6.00
2018-04-07T07:19:57.145Z,5.13
2018-04-07T07:22:26.466Z,5.27
2018-04-07T07:24:55.729Z,5.70
2018-04-07T07:27:25.223Z,6.20
2018-04-07T07:29:54.430Z,5.70
2018-04-07T07:32:23.705Z,5.27
2018-04-07T07:34:53.718Z,6.00
2018-04-07T07:37:23.774Z,6.07
2018-04-07T07:39:53.221Z,4.97
2018-04-07T07:42:22.512Z,5.23
2018-04-07T07:44:51.926Z,5.90
2018-04-07T07:47:22.814Z,6.53
2018-04-07T07:49:52.062Z,5.13
2018-04-07T07:52:21.401Z,4.93
2018-04-07T07:54:51.446Z,5.53
2018-04-07T07:57:20.717Z,5.73
2018-04-07T07:59:50.118Z,6.03
2018-04-07T08:02:20.121Z,5.30
2018-04-07T08:04:49.369Z,5.87
2018-04-07T08:07:18.641Z,6.07
2018-04-07T08:09:48.889Z,6.23
2018-04-07T08:12:18.166Z,5.10
2018-04-07T08:14:47.438Z,5.83
2018-04-07T08:17:16.706Z,6.43
2018-04-07T08:19:46.013Z,5.50
2018-04-07T08:22:15.305Z,6.40
2018-04-07T08:24:45.157Z,5.70
2018-04-07T08:27:14.428Z,6.63
2018-04-07T08:29:43.679Z,5.77
2018-04-07T08:32:13.021Z,6.33
2018-04-07T08:34:42.259Z,6.77
2018-04-07T08:37:14.829Z,5.33
2018-04-07T08:39:40.820Z,6.57
2018-04-07T08:42:10.099Z,7.47
2018-04-07T08:44:39.384Z,49.27
2018-04-07T08:47:08.657Z,9.13
2018-04-07T08:49:37.926Z,6.80
2018-04-07T08:52:07.178Z,6.63
2018-04-07T08:54:36.699Z,7.30
2018-04-07T08:57:05.943Z,6.20
2018-04-07T08:59:35.445Z,6.60
2018-04-07T09:02:05.478Z,6.60
2018-04-07T09:04:34.745Z,7.40
2018-04-07T09:07:04.022Z,6.43
2018-04-07T09:09:33.277Z,6.77
2018-04-07T09:12:02.550Z,7.77
2018-04-07T09:14:31.799Z,6.90
2018-04-07T09:17:01.082Z,7.17
2018-04-07T09:19:30.418Z,6.47
2018-04-07T09:21:59.706Z,5.87
2018-04-07T09:24:28.968Z,7.27
2018-04-07T09:26:58.240Z,8.13
2018-04-07T09:29:28.262Z,6.87
2018-04-07T09:31:57.527Z,7.70
2018-04-07T09:34:26.809Z,7.17
2018-04-07T09:36:56.091Z,6.90
2018-04-07T09:39:25.593Z,7.20
2018-04-07T09:41:54.816Z,6.63
2018-04-07T09:44:24.093Z,7.50
2018-04-07T09:46:53.365Z,8.03
2018-04-07T09:49:22.680Z,7.23
2018-04-07T09:51:52.142Z,7.37
2018-04-07T09:54:21.357Z,6.83
2018-04-07T09:56:50.638Z,8.57
2018-04-07T09:59:19.885Z,7.40
2018-04-07T10:01:49.930Z,8.47
2018-04-07T10:04:19.250Z,7.47
2018-04-07T10:06:48.538Z,6.70
2018-04-07T10:09:17.790Z,7.90
2018-04-07T10:11:47.069Z,8.17
2018-04-07T10:14:16.447Z,8.57
2018-04-07T10:16:45.747Z,8.73
2018-04-07T10:19:15.047Z,7.90
2018-04-07T10:21:44.294Z,9.20
2018-04-07T10:24:13.582Z,9.33
2018-04-07T10:26:43.642Z,8.80
2018-04-07T10:29:12.953Z,8.57
2018-04-07T10:31:42.227Z,8.60
2018-04-07T10:34:11.522Z,7.90
2018-04-07T10:36:40.840Z,7.30
2018-04-07T10:39:10.878Z,7.83
2018-04-07T10:41:40.123Z,7.57
2018-04-07T10:44:09.370Z,7.50
2018-04-07T10:46:38.645Z,8.90
2018-04-07T10:49:07.905Z,9.13
2018-04-07T10:51:37.186Z,7.87
2018-04-07T10:54:06.443Z,9.33
2018-04-07T10:56:35.727Z,9.30
2018-04-07T10:59:04.984Z,8.80
2018-04-07T11:01:34.260Z,7.60
2018-04-07T11:04:04.322Z,7.70
2018-04-07T11:06:33.608Z,8.50
2018-04-07T11:09:02.893Z,8.43
2018-04-07T11:11:32.158Z,8.80
2018-04-07T11:14:01.433Z,9.13
2018-04-07T11:16:30.696Z,7.97
2018-04-07T11:19:00.760Z,9.83
2018-04-07T11:21:30.010Z,8.50
2018-04-07T11:23:59.272Z,9.20
2018-04-07T11:26:28.633Z,8.70
2018-04-07T11:28:57.879Z,10.40
2018-04-07T11:31:27.334Z,9.27
2018-04-07T11:33:56.582Z,9.80
2018-04-07T11:36:25.927Z,8.63
2018-04-07T11:38:55.942Z,8.70
2018-04-07T11:41:25.243Z,8.10
2018-04-07T11:43:54.644Z,9.63
2018-04-07T11:46:24.717Z,10.83
2018-04-07T11:48:53.967Z,9.20
2018-04-07T11:51:24.059Z,9.07
2018-04-07T11:53:53.370Z,9.90
2018-04-07T11:56:22.634Z,10.33
2018-04-07T11:58:51.909Z,10.23
2018-04-07T12:01:21.173Z,11.00
2018-04-07T12:03:50.475Z,10.37
2018-04-07T12:06:19.712Z,9.70
2018-04-07T12:08:48.984Z,8.63
2018-04-07T12:11:18.254Z,10.77
2018-04-07T12:13:47.538Z,10.53
2018-04-07T12:16:16.834Z,10.83
2018-04-07T12:18:46.148Z,11.60
2018-04-07T12:21:15.429Z,11.20
2018-04-07T12:23:44.838Z,10.10
2018-04-07T12:26:14.939Z,11.17
2018-04-07T12:28:44.230Z,10.00
2018-04-07T12:31:14.280Z,11.40
2018-04-07T12:33:43.547Z,10.37
2018-04-07T12:36:13.598Z,11.27
2018-04-07T12:38:42.975Z,11.70
2018-04-07T12:41:12.274Z,10.20
2018-04-07T12:43:42.291Z,11.50
2018-04-07T12:46:12.362Z,11.03
2018-04-07T12:48:41.725Z,10.77
2018-04-07T12:51:11.775Z,12.60
2018-04-07T12:53:41.046Z,11.60
2018-04-07T12:56:11.118Z,10.50
2018-04-07T12:58:40.361Z,10.57
2018-04-07T13:01:09.659Z,11.30
2018-04-07T13:03:40.434Z,10.63
2018-04-07T13:06:09.786Z,10.60
2018-04-07T13:08:39.820Z,11.17
2018-04-07T13:11:09.107Z,12.17
2018-04-07T13:13:39.154Z,10.13
2018-04-07T13:16:08.805Z,10.87
2018-04-07T13:18:38.058Z,12.57
2018-04-07T13:21:07.324Z,11.20
2018-04-07T13:23:36.611Z,15.67
2018-04-07T13:26:07.493Z,11.90
2018-04-07T13:28:36.758Z,10.10
2018-04-07T13:31:06.049Z,10.20
2018-04-07T13:33:38.648Z,9.50
2018-04-07T13:36:05.341Z,9.67
2018-04-07T13:38:34.627Z,10.10
2018-04-07T13:41:03.921Z,11.17
2018-04-07T13:43:33.325Z,8.80
2018-04-07T13:46:02.584Z,9.03
2018-04-07T13:48:31.866Z,10.47
2018-04-07T13:51:01.155Z,10.00
2018-04-07T13:53:30.427Z,8.50
2018-04-07T13:55:59.737Z,10.53
2018-04-07T13:58:29.012Z,11.30
2018-04-07T14:00:59.062Z,10.37
2018-04-07T14:03:28.313Z,9.10
2018-04-07T14:05:57.629Z,10.50
2018-04-07T14:08:27.699Z,10.23
2018-04-07T14:10:56.989Z,9.57
2018-04-07T14:13:26.319Z,10.00
2018-04-07T14:15:55.598Z,8.83
2018-04-07T14:18:24.861Z,8.50
2018-04-07T14:20:54.913Z,7.70
2018-04-07T14:23:24.317Z,9.20
2018-04-07T14:25:53.602Z,8.23
2018-04-07T14:28:23.695Z,7.97
2018-04-07T14:30:53.762Z,8.40
2018-04-07T14:33:23.053Z,8.80
2018-04-07T14:35:53.254Z,8.60
2018-04-07T14:38:23.292Z,8.87
2018-04-07T14:40:52.669Z,8.83
2018-04-07T14:43:22.720Z,6.50
2018-04-07T14:45:51.992Z,7.80
2018-04-07T14:48:22.229Z,9.27
2018-04-07T14:50:51.704Z,7.47
2018-04-07T14:53:21.734Z,8.17
2018-04-07T14:55:52.030Z,7.67
2018-04-07T14:58:21.295Z,6.60
2018-04-07T15:00:50.571Z,7.57
2018-04-07T15:03:20.626Z,7.97
2018-04-07T15:05:49.890Z,7.67
2018-04-07T15:08:19.142Z,6.87
2018-04-07T15:10:48.425Z,8.73
2018-04-07T15:13:17.691Z,7.23
2018-04-07T15:15:47.709Z,6.57
2018-04-07T15:18:17.751Z,7.63
2018-04-07T15:20:47.037Z,7.07
2018-04-07T15:23:17.062Z,6.77
2018-04-07T15:25:46.346Z,7.07
2018-04-07T15:28:15.598Z,6.40
2018-04-07T15:30:44.893Z,6.80
2018-04-07T15:33:14.213Z,9.13
2018-04-07T15:35:43.469Z,6.93
2018-04-07T15:38:12.737Z,7.00
2018-04-07T15:40:42.763Z,7.80
2018-04-07T15:43:12.094Z,7.27
2018-04-07T15:45:41.361Z,10.67
2018-04-07T15:48:10.621Z,7.40
2018-04-07T15:50:39.893Z,6.30
2018-04-07T15:53:09.178Z,6.50
2018-04-07T15:55:39.204Z,11.30
2018-04-07T15:58:08.505Z,5.87
2018-04-07T16:00:37.754Z,8.20
2018-04-07T16:03:07.945Z,5.03
2018-04-07T16:05:37.253Z,9.17
2018-04-07T16:08:06.581Z,8.47
2018-04-07T16:10:35.810Z,8.60
2018-04-07T16:13:05.070Z,5.47
2018-04-07T16:15:34.357Z,7.97
2018-04-07T16:18:03.775Z,6.63
2018-04-07T16:20:33.055Z,5.50
2018-04-07T16:23:02.333Z,6.10
2018-04-07T16:25:31.625Z,4.17
2018-04-07T16:28:00.877Z,4.73
2018-04-07T16:30:30.181Z,5.10
2018-04-07T16:32:59.522Z,4.33
2018-04-07T16:35:28.810Z,3.20
2018-04-07T16:37:58.088Z,4.87
2018-04-07T16:40:27.372Z,3.30
2018-04-07T16:42:56.642Z,3.70
2018-04-07T16:45:25.903Z,3.50
2018-04-07T16:47:55.158Z,3.00
2018-04-07T16:50:24.413Z,3.20
2018-04-07T16:52:53.681Z,2.27
2018-04-07T16:55:22.920Z,3.20
2018-04-07T16:57:52.963Z,2.73
2018-04-07T17:00:22.255Z,3.77
2018-04-07T17:02:51.526Z,2.87
2018-04-07T17:05:20.809Z,2.90
2018-04-07T17:07:50.055Z,2.80
2018-04-07T17:10:20.098Z,3.20
2018-04-07T17:12:49.385Z,4.70
2018-04-07T17:15:19.409Z,2.67
2018-04-07T17:17:49.451Z,3.10
2018-04-07T17:20:18.835Z,3.33
2018-04-07T17:22:48.099Z,4.90
2018-04-07T17:25:17.396Z,3.67
2018-04-07T17:27:46.690Z,4.40
2018-04-07T17:30:15.973Z,3.50
2018-04-07T17:32:45.250Z,2.30
2018-04-07T17:35:14.536Z,3.87
2018-04-07T17:37:43.814Z,4.10
2018-04-07T17:40:13.061Z,3.27
2018-04-07T17:42:42.341Z,2.50
2018-04-07T17:45:11.838Z,2.77
2018-04-07T17:47:41.878Z,2.70
2018-04-07T17:50:11.170Z,2.40
2018-04-07T17:52:40.426Z,3.00
2018-04-07T17:55:09.698Z,2.90
2018-04-07T17:57:39.022Z,2.53
2018-04-07T18:00:08.988Z,2.00
2018-04-07T18:02:38.256Z,2.20
2018-04-07T18:05:07.514Z,2.07
2018-04-07T18:07:37.621Z,3.03
2018-04-07T18:10:06.894Z,2.30
2018-04-07T18:12:36.953Z,2.43
2018-04-07T18:15:06.265Z,2.20
2018-04-07T18:17:35.550Z,2.10
2018-04-07T18:20:04.840Z,2.27
2018-04-07T18:22:34.161Z,2.43
2018-04-07T18:25:04.311Z,2.30
2018-04-07T18:27:33.658Z,2.27
2018-04-07T18:30:02.873Z,2.40
2018-04-07T18:32:32.179Z,2.47
2018-04-07T18:35:01.478Z,3.10
2018-04-07T18:37:30.729Z,3.60
2018-04-07T18:40:00.082Z,2.50
2018-04-07T18:42:29.358Z,2.63
2018-04-07T18:44:58.624Z,2.67
2018-04-07T18:47:27.985Z,2.70
2018-04-07T18:49:57.240Z,2.63
2018-04-07T18:52:28.058Z,3.13
2018-04-07T18:54:57.305Z,3.00
2018-04-07T18:57:26.610Z,3.47
2018-04-07T18:59:55.902Z,2.57
2018-04-07T19:02:25.186Z,2.80
2018-04-07T19:04:55.212Z,2.80
2018-04-07T19:07:24.469Z,2.80
2018-04-07T19:09:53.756Z,2.47
2018-04-07T19:12:23.031Z,2.43
2018-04-07T19:14:52.299Z,2.50
2018-04-07T19:17:22.763Z,3.03
2018-04-07T19:19:53.068Z,2.70
2018-04-07T19:22:23.234Z,3.53
2018-04-07T19:24:52.485Z,3.20
2018-04-07T19:27:21.902Z,2.20
2018-04-07T19:29:51.174Z,2.90
2018-04-07T19:32:20.455Z,3.37
2018-04-07T19:34:49.733Z,3.27
2018-04-07T19:37:18.967Z,3.17
2018-04-07T19:39:49.199Z,3.33
2018-04-07T19:42:18.469Z,2.90
2018-04-07T19:44:47.891Z,2.63
2018-04-07T19:47:17.150Z,2.50
2018-04-07T19:49:47.211Z,2.50
2018-04-07T19:52:16.592Z,3.43
2018-04-07T19:54:45.942Z,2.70
2018-04-07T19:57:15.209Z,3.50
2018-04-07T19:59:44.483Z,2.90
2018-04-07T20:02:13.739Z,3.40
2018-04-07T20:04:43.039Z,2.80
2018-04-07T20:07:12.341Z,3.90
2018-04-07T20:09:41.629Z,4.00
2018-04-07T20:12:10.985Z,2.97
2018-04-07T20:14:40.313Z,3.37
2018-04-07T20:17:09.622Z,2.70
2018-04-07T20:19:38.931Z,3.20
2018-04-07T20:22:08.178Z,2.70
2018-04-07T20:24:37.501Z,2.50
2018-04-07T20:27:06.801Z,2.40
2018-04-07T20:29:36.087Z,3.53
2018-04-07T20:32:06.144Z,2.80
2018-04-07T20:34:35.414Z,3.07
2018-04-07T20:37:04.911Z,2.80
2018-04-07T20:39:34.141Z,4.90
2018-04-07T20:42:21.006Z,2.23
2018-04-07T20:44:50.255Z,2.80
2018-04-07T20:47:19.793Z,2.67
2018-04-07T20:49:49.141Z,2.80
2018-04-07T20:52:19.192Z,3.27
2018-04-07T20:54:48.466Z,2.60
2018-04-07T20:57:17.719Z,2.73
2018-04-07T20:59:47.653Z,2.87
2018-04-07T21:02:18.517Z,2.87
2018-04-07T21:04:48.398Z,2.93
2018-04-07T21:07:17.644Z,2.20
2018-04-07T21:09:46.919Z,2.80
2018-04-07T21:12:16.191Z,2.53
2018-04-07T21:14:45.425Z,2.53
2018-04-07T21:17:15.437Z,2.37
2018-04-07T21:19:44.719Z,2.77
2018-04-07T21:22:15.469Z,2.77
2018-04-07T21:24:44.742Z,2.50
2018-04-07T21:27:14.014Z,3.07
2018-04-07T21:29:43.409Z,2.90
2018-04-07T21:32:12.677Z,2.80
2018-04-07T21:34:41.943Z,2.23
2018-04-07T21:37:11.271Z,2.50
2018-04-07T21:39:42.005Z,1.90
2018-04-07T21:42:11.278Z,2.30
2018-04-07T21:44:40.563Z,2.53
2018-04-07T21:47:10.311Z,2.03
2018-04-07T21:49:39.599Z,2.80
2018-04-07T21:52:08.853Z,2.10
2018-04-07T21:54:38.890Z,2.40
2018-04-07T21:57:08.150Z,2.70
2018-04-07T21:59:38.173Z,2.17
2018-04-07T22:02:08.208Z,2.97
2018-04-07T22:04:37.591Z,3.33
2018-04-07T22:07:06.867Z,2.20
2018-04-07T22:09:36.125Z,2.50
2018-04-07T22:12:05.394Z,2.20
2018-04-07T22:14:34.690Z,3.30
2018-04-07T22:17:04.026Z,2.87
2018-04-07T22:19:33.289Z,2.90
2018-04-07T22:22:04.327Z,2.90
2018-04-07T22:24:33.602Z,3.67
2018-04-07T22:27:02.848Z,2.90
2018-04-07T22:29:32.121Z,2.33
2018-04-07T22:32:01.437Z,3.23
2018-04-07T22:34:30.673Z,2.50
2018-04-07T22:36:59.933Z,2.50
2018-04-07T22:39:29.223Z,2.40
2018-04-07T22:41:58.492Z,2.73
2018-04-07T22:44:27.804Z,2.23
2018-04-07T22:46:57.061Z,3.23
2018-04-07T22:49:26.309Z,2.80
2018-04-07T22:51:55.606Z,4.30
2018-04-07T22:54:24.848Z,3.43
2018-04-07T22:56:54.138Z,3.27
2018-04-07T22:59:23.385Z,3.20
2018-04-07T23:01:52.754Z,3.17
2018-04-07T23:04:22.783Z,2.50
2018-04-07T23:06:52.065Z,3.20
2018-04-07T23:09:21.323Z,3.83
2018-04-07T23:11:50.619Z,3.07
2018-04-07T23:14:19.872Z,2.90
2018-04-07T23:16:49.152Z,3.40
2018-04-07T23:19:18.414Z,2.70
2018-04-07T23:21:47.698Z,3.23
2018-04-07T23:24:17.089Z,3.27
2018-04-07T23:26:47.129Z,3.37
2018-04-07T23:29:16.393Z,2.80
2018-04-07T23:31:45.666Z,3.20
2018-04-07T23:34:14.914Z,3.37
2018-04-07T23:36:44.947Z,2.90
2018-04-07T23:39:14.213Z,2.73
2018-04-07T23:41:43.478Z,2.83
2018-04-07T23:44:12.750Z,2.87
2018-04-07T23:46:41.991Z,3.30
2018-04-07T23:49:11.255Z,3.70
2018-04-07T23:51:40.507Z,2.67
2018-04-07T23:54:09.778Z,3.23
2018-04-07T23:56:39.070Z,3.60
2018-04-07T23:59:08.347Z,2.60
